createdAt,value
2022-10-05T00:01:49.778Z,16.68
2022-10-05T00:06:01.288Z,16.65
2022-10-05T00:10:17.853Z,16.58
2022-10-05T00:14:32.866Z,16.53
2022-10-05T00:18:53.252Z,16.49
2022-10-05T00:23:11.418Z,16.46
2022-10-05T00:27:26.522Z,16.43
2022-10-05T00:31:38.649Z,16.39
2022-10-05T00:35:50.229Z,16.40
2022-10-05T00:40:03.926Z,16.37
2022-10-05T00:44:39.804Z,16.36
2022-10-05T00:49:28.708Z,16.43
2022-10-05T00:53:50.600Z,16.41
2022-10-05T00:58:19.082Z,16.43
2022-10-05T01:02:47.587Z,16.43
2022-10-05T01:07:14.870Z,16.45
2022-10-05T01:11:52.501Z,16.44
2022-10-05T01:16:16.006Z,16.36
2022-10-05T01:20:49.193Z,16.38
2022-10-05T01:25:24.931Z,16.39
2022-10-05T01:29:45.412Z,16.35
2022-10-05T01:34:21.760Z,16.35
2022-10-05T01:38:48.126Z,16.32
2022-10-05T01:43:03.991Z,16.32
2022-10-05T01:47:42.351Z,16.33
2022-10-05T01:52:07.447Z,16.32
2022-10-05T01:56:38.880Z,16.29
2022-10-05T02:01:41.651Z,16.29
2022-10-05T02:05:59.540Z,16.18
2022-10-05T02:10:23.701Z,16.13
2022-10-05T02:14:41.299Z,16.00
2022-10-05T02:18:59.697Z,15.96
2022-10-05T02:23:17.822Z,15.92
2022-10-05T02:27:38.039Z,15.86
2022-10-05T02:31:57.421Z,15.81
2022-10-05T02:36:19.660Z,15.76
2022-10-05T02:40:58.404Z,15.76
2022-10-05T02:45:22.933Z,15.74
2022-10-05T02:50:03.396Z,15.73
2022-10-05T02:54:25.146Z,15.70
2022-10-05T02:58:59.104Z,15.64
2022-10-05T03:03:24.817Z,15.59
2022-10-05T03:07:55.397Z,15.64
2022-10-05T03:12:17.413Z,15.65
2022-10-05T03:16:54.605Z,15.62
2022-10-05T03:21:22.309Z,15.71
2022-10-05T03:25:50.685Z,15.72
2022-10-05T03:30:13.350Z,15.72
2022-10-05T03:34:53.846Z,15.75
2022-10-05T03:39:36.414Z,15.72
2022-10-05T03:44:16.161Z,15.73
2022-10-05T03:48:55.237Z,15.74
2022-10-05T03:53:33.381Z,15.75
2022-10-05T03:57:47.294Z,15.74
2022-10-05T04:02:10.955Z,15.77
2022-10-05T04:06:27.448Z,15.71
2022-10-05T04:10:45.424Z,15.73
2022-10-05T04:15:03.684Z,15.74
2022-10-05T04:19:44.211Z,15.77
2022-10-05T04:24:18.239Z,15.77
2022-10-05T04:28:54.176Z,15.71
2022-10-05T04:33:10.501Z,15.68
2022-10-05T04:37:35.683Z,15.73
2022-10-05T04:42:09.370Z,15.74
2022-10-05T04:46:40.809Z,15.75
2022-10-05T04:51:01.176Z,15.79
2022-10-05T04:55:27.938Z,15.74
2022-10-05T04:59:55.808Z,15.75
2022-10-05T05:04:38.036Z,15.77
2022-10-05T05:09:22.119Z,15.78
2022-10-05T05:13:59.647Z,15.74
2022-10-05T05:18:44.815Z,15.72
2022-10-05T05:23:17.748Z,15.72
2022-10-05T05:27:41.081Z,15.69
2022-10-05T05:32:08.530Z,15.63
2022-10-05T05:36:42.325Z,15.64
2022-10-05T05:41:03.111Z,15.62
2022-10-05T05:45:21.133Z,15.61
2022-10-05T05:49:51.271Z,15.55
2022-10-05T05:54:44.433Z,15.55
2022-10-05T05:59:10.207Z,15.57
2022-10-05T06:03:28.622Z,15.59
2022-10-05T06:07:41.571Z,15.52
2022-10-05T06:12:03.440Z,15.55
2022-10-05T06:16:27.808Z,15.61
2022-10-05T06:21:00.581Z,15.61
2022-10-05T06:25:12.159Z,15.64
2022-10-05T06:29:51.882Z,15.62
2022-10-05T06:34:33.526Z,15.66
2022-10-05T06:39:12.245Z,15.70
2022-10-05T06:43:45.994Z,15.77
2022-10-05T06:48:16.109Z,15.78
2022-10-05T06:53:35.736Z,15.77
2022-10-05T06:57:57.331Z,15.76
2022-10-05T07:02:39.016Z,15.73
2022-10-05T07:06:59.969Z,15.81
2022-10-05T07:11:33.811Z,15.90
2022-10-05T07:16:09.192Z,15.96
2022-10-05T07:20:48.873Z,16.01
2022-10-05T07:25:13.174Z,16.04
2022-10-05T07:29:47.983Z,16.05
2022-10-05T07:34:17.634Z,16.11
2022-10-05T07:38:41.957Z,16.10
2022-10-05T07:42:55.966Z,16.16
2022-10-05T07:47:30.744Z,16.19
2022-10-05T07:51:46.046Z,16.23
2022-10-05T07:56:06.395Z,16.27
2022-10-05T08:00:21.188Z,16.32
2022-10-05T08:05:03.177Z,16.33
2022-10-05T08:09:36.339Z,16.39
2022-10-05T08:14:10.421Z,16.44
2022-10-05T08:18:42.481Z,16.42
2022-10-05T08:23:02.685Z,16.46
2022-10-05T08:27:28.887Z,16.54
2022-10-05T08:31:44.497Z,16.59
2022-10-05T08:36:10.746Z,16.72
2022-10-05T08:40:34.386Z,16.86
2022-10-05T08:45:27.597Z,17.00
2022-10-05T08:50:16.883Z,17.19
2022-10-05T08:54:56.322Z,17.27
2022-10-05T08:59:19.956Z,17.43
2022-10-05T09:03:46.562Z,17.45
2022-10-05T09:08:39.991Z,17.60
2022-10-05T09:13:15.932Z,17.65
2022-10-05T09:17:52.411Z,17.86
2022-10-05T09:22:25.419Z,17.96
2022-10-05T09:27:07.747Z,18.24
2022-10-05T09:31:35.400Z,18.39
2022-10-05T09:36:05.187Z,18.46
2022-10-05T09:40:34.979Z,18.67
2022-10-05T09:45:21.582Z,18.74
2022-10-05T09:50:04.058Z,18.78
2022-10-05T09:54:45.847Z,18.86
2022-10-05T09:59:33.000Z,19.03
2022-10-05T10:04:17.837Z,19.17
2022-10-05T10:08:37.323Z,19.60
2022-10-05T10:13:30.473Z,19.88
2022-10-05T10:18:03.854Z,19.99
2022-10-05T10:22:50.118Z,20.11
2022-10-05T10:27:17.179Z,20.20
2022-10-05T10:31:50.944Z,20.50
2022-10-05T10:36:13.187Z,21.15
2022-10-05T10:40:48.964Z,21.28
2022-10-05T10:45:29.775Z,21.03
2022-10-05T10:49:53.505Z,20.71
2022-10-05T10:54:30.121Z,20.58
2022-10-05T10:59:19.101Z,20.43
2022-10-05T11:03:33.680Z,20.35
2022-10-05T11:07:48.230Z,20.26
2022-10-05T11:12:17.755Z,20.22
2022-10-05T11:16:39.906Z,20.16
2022-10-05T11:21:36.619Z,20.07
2022-10-05T11:26:01.891Z,20.16
2022-10-05T11:30:31.856Z,20.07
2022-10-05T11:34:59.718Z,19.92
2022-10-05T11:39:39.288Z,20.02
2022-10-05T11:44:07.221Z,20.08
2022-10-05T11:48:49.756Z,20.11
2022-10-05T11:53:10.242Z,20.15
2022-10-05T11:57:26.116Z,20.21
2022-10-05T12:01:52.463Z,20.36
2022-10-05T12:06:24.485Z,20.46
2022-10-05T12:11:21.674Z,20.43
2022-10-05T12:15:41.427Z,20.57
2022-10-05T12:20:06.387Z,20.74
2022-10-05T12:24:30.964Z,21.10
2022-10-05T12:28:49.696Z,21.10
2022-10-05T12:33:17.305Z,21.21
2022-10-05T12:38:08.157Z,21.33
2022-10-05T12:42:42.089Z,21.35
2022-10-05T12:47:06.059Z,21.39
2022-10-05T12:51:44.876Z,21.47
2022-10-05T12:56:16.945Z,21.54
2022-10-05T13:00:33.044Z,21.58
2022-10-05T13:04:55.788Z,21.58
2022-10-05T13:09:13.466Z,21.55
2022-10-05T13:13:35.550Z,21.63
2022-10-05T13:18:12.315Z,21.67
2022-10-05T13:22:47.550Z,21.69
2022-10-05T13:27:16.012Z,21.84
2022-10-05T13:31:29.917Z,21.77
2022-10-05T13:35:52.521Z,21.74
2022-10-05T13:40:28.496Z,21.77
2022-10-05T13:45:03.892Z,21.83
2022-10-05T13:49:29.361Z,21.90
2022-10-05T13:54:00.879Z,21.79
2022-10-05T13:58:39.186Z,21.74
2022-10-05T14:02:53.338Z,21.66
2022-10-05T14:07:38.336Z,21.57
2022-10-05T14:12:11.838Z,21.48
2022-10-05T14:16:25.331Z,21.44
2022-10-05T14:20:37.195Z,21.53
2022-10-05T14:25:13.861Z,21.57
2022-10-05T14:29:37.524Z,21.40
2022-10-05T14:33:49.054Z,21.40
2022-10-05T14:38:03.162Z,21.35
2022-10-05T14:42:18.428Z,21.24
2022-10-05T14:46:34.764Z,21.12
2022-10-05T14:50:54.890Z,21.00
2022-10-05T14:55:50.985Z,21.01
2022-10-05T15:00:18.780Z,20.91
2022-10-05T15:05:16.284Z,20.73
2022-10-05T15:10:02.542Z,20.67
2022-10-05T15:14:22.652Z,20.48
2022-10-05T15:19:00.365Z,20.35
2022-10-05T15:23:23.644Z,20.34
2022-10-05T15:27:58.401Z,20.27
2022-10-05T15:32:23.516Z,20.16
2022-10-05T15:36:59.139Z,20.10
2022-10-05T15:41:40.786Z,20.05
2022-10-05T15:46:11.215Z,19.83
2022-10-05T15:50:26.075Z,19.73
2022-10-05T15:54:59.404Z,19.60
2022-10-05T15:59:29.986Z,19.53
2022-10-05T16:03:52.105Z,19.35
2022-10-05T16:08:22.293Z,19.32
2022-10-05T16:12:52.311Z,19.27
2022-10-05T16:17:25.302Z,19.24
2022-10-05T16:21:46.851Z,19.20
2022-10-05T16:26:23.853Z,19.13
2022-10-05T16:31:02.303Z,19.10
2022-10-05T16:35:24.910Z,19.05
2022-10-05T16:40:05.253Z,18.93
2022-10-05T16:44:35.521Z,18.76
2022-10-05T16:49:01.888Z,18.70
2022-10-05T16:53:25.494Z,18.63
2022-10-05T16:57:43.046Z,18.60
2022-10-05T17:02:28.761Z,18.63
2022-10-05T17:06:49.241Z,18.55
2022-10-05T17:11:10.527Z,18.54
2022-10-05T17:15:33.081Z,18.45
2022-10-05T17:20:18.745Z,18.54
2022-10-05T17:24:55.883Z,18.35
2022-10-05T17:29:28.008Z,18.40
2022-10-05T17:34:30.816Z,18.45
2022-10-05T17:38:47.074Z,18.43
2022-10-05T17:43:16.933Z,18.40
2022-10-05T17:47:57.796Z,18.40
2022-10-05T17:52:40.243Z,18.40
2022-10-05T17:56:52.474Z,18.37
2022-10-05T18:01:13.227Z,18.32
2022-10-05T18:05:29.267Z,18.36
2022-10-05T18:09:57.937Z,18.37
2022-10-05T18:14:24.729Z,18.39
2022-10-05T18:18:54.684Z,18.34
2022-10-05T18:23:06.236Z,18.46
2022-10-05T18:27:55.882Z,18.46
2022-10-05T18:32:21.338Z,18.34
2022-10-05T18:37:00.488Z,18.43
2022-10-05T18:41:22.800Z,18.35
2022-10-05T18:45:58.361Z,18.38
2022-10-05T18:50:38.928Z,18.40
2022-10-05T18:55:13.160Z,18.48
2022-10-05T18:59:51.304Z,18.49
2022-10-05T19:04:34.356Z,18.45
2022-10-05T19:08:54.798Z,18.54
2022-10-05T19:13:21.612Z,18.49
2022-10-05T19:17:56.836Z,18.62
2022-10-05T19:22:17.368Z,18.52
2022-10-05T19:27:02.446Z,18.51
2022-10-05T19:31:29.834Z,18.53
2022-10-05T19:36:09.344Z,18.57
2022-10-05T19:40:26.885Z,18.59
2022-10-05T19:44:54.292Z,18.50
2022-10-05T19:49:09.464Z,18.58
2022-10-05T19:53:30.288Z,18.53
2022-10-05T19:57:58.065Z,18.56
2022-10-05T20:02:15.903Z,18.52
2022-10-05T20:06:29.414Z,18.40
2022-10-05T20:10:41.162Z,18.18
2022-10-05T20:15:26.466Z,18.09
2022-10-05T20:19:57.741Z,18.07
2022-10-05T20:24:15.587Z,18.02
2022-10-05T20:28:31.698Z,18.07
2022-10-05T20:33:14.570Z,18.15
2022-10-05T20:37:26.438Z,18.07
2022-10-05T20:41:38.009Z,17.93
2022-10-05T20:45:49.575Z,17.45
2022-10-05T20:50:05.441Z,17.11
2022-10-05T20:54:18.982Z,16.86
2022-10-05T20:58:30.832Z,16.62
2022-10-05T21:02:42.794Z,16.30
2022-10-05T21:06:54.407Z,15.99
2022-10-05T21:11:12.125Z,15.81
2022-10-05T21:15:23.690Z,15.73
2022-10-05T21:19:41.169Z,15.65
2022-10-05T21:23:52.905Z,15.56
2022-10-05T21:28:06.129Z,15.51
2022-10-05T21:32:17.698Z,15.65
2022-10-05T21:36:29.238Z,15.63
2022-10-05T21:40:43.248Z,15.75
2022-10-05T21:44:54.783Z,15.69
2022-10-05T21:49:07.275Z,15.76
2022-10-05T21:53:23.132Z,15.70
2022-10-05T21:57:35.547Z,15.74
2022-10-05T22:01:47.167Z,15.72
2022-10-05T22:05:58.762Z,15.70
2022-10-05T22:10:10.610Z,15.72
2022-10-05T22:14:22.545Z,15.69
2022-10-05T22:18:34.129Z,15.80
2022-10-05T22:22:45.686Z,15.78
2022-10-05T22:26:57.339Z,15.80
2022-10-05T22:31:10.584Z,15.72
2022-10-05T22:35:22.172Z,15.57
2022-10-05T22:39:33.771Z,15.36
2022-10-05T22:43:49.948Z,15.25
2022-10-05T22:48:01.605Z,15.10
2022-10-05T22:52:13.150Z,14.95
2022-10-05T22:56:24.706Z,14.85
2022-10-05T23:00:57.014Z,14.86
2022-10-05T23:05:09.182Z,14.73
2022-10-05T23:09:20.727Z,14.52
2022-10-05T23:13:33.354Z,14.46
2022-10-05T23:17:44.880Z,14.42
2022-10-05T23:21:56.480Z,14.35
2022-10-05T23:26:10.416Z,14.26
2022-10-05T23:30:22.105Z,14.31
2022-10-05T23:34:33.811Z,14.17
2022-10-05T23:38:46.025Z,14.25
2022-10-05T23:42:57.711Z,14.16
2022-10-05T23:47:09.245Z,14.15
2022-10-05T23:51:20.922Z,14.08
2022-10-05T23:55:32.662Z,14.09
2022-10-05T23:59:44.275Z,14.06
